This is the latest recevied weather packets stored in our database for station/object SP6KBU-12. If no packets are shown the sender has not sent any weather packets the latest 10 day(s).
| Time | Temp. | Humidity | Pressure | Rain* | Wind** | Luminosity | Snow |
|---|---|---|---|---|---|---|---|
| 1778009507 | 14.44° C | 61% | 1008.8 hPa | - | - | - | - |
| 1778008765 | 15° C | 62% | 1008.8 hPa | - | - | - | - |
| 1778008608 | 15° C | 62% | 1008.8 hPa | - | - | - | - |
| 1778007707 | 15° C | 61% | 1008.7 hPa | - | - | - | - |
| 1778006807 | 15.56° C | 59% | 1008.6 hPa | - | - | - | - |
| 1778005907 | 16.11° C | 57% | 1008.7 hPa | - | - | - | - |
| 1778005006 | 16.11° C | 57% | 1008.9 hPa | - | - | - | - |
| 1778004106 | 16.67° C | 55% | 1009 hPa | - | - | - | - |
| 1778003207 | 17.78° C | 54% | 1008.9 hPa | - | - | - | - |
| 1778002307 | 18.33° C | 53% | 1008.7 hPa | - | - | - | - |
| 1778001407 | 18.33° C | 52% | 1008.7 hPa | - | - | - | - |
| 1778000506 | 18.89° C | 51% | 1008.7 hPa | - | - | - | - |
| 1777999606 | 19.44° C | 50% | 1008.4 hPa | - | - | - | - |
| 1777998705 | 20.56° C | 45% | 1008.2 hPa | - | - | - | - |
| 1777997805 | 22.22° C | 40% | 1008.3 hPa | - | - | - | - |
| 1777996905 | 24.44° C | 33% | 1008.3 hPa | - | - | - | - |
| 1777996004 | 26.67° C | 32% | 1008.4 hPa | - | - | - | - |
| 1777995104 | 26.67° C | 31% | 1008.3 hPa | - | - | - | - |
| 1777994203 | 25.56° C | 32% | 1008.5 hPa | - | - | - | - |
| 1777993303 | 25.56° C | 33% | 1008.6 hPa | - | - | - | - |
| 1777992403 | 26.11° C | 33% | 1008.6 hPa | - | - | - | - |
| 1777991503 | 27.78° C | 32% | 1008.6 hPa | - | - | - | - |
| 1777990602 | 27.78° C | 30% | 1008.8 hPa | - | - | - | - |
| 1777989702 | 27.78° C | 32% | 1008.9 hPa | - | - | - | - |
| 1777988802 | 27.22° C | 33% | 1009.1 hPa | - | - | - | - |
* Rain since midnight (hover to see other rain measurements)
** Current wind speed in m/s (hover to see current wind gust speed)